sensor_id;sensor_type;location;lat;lon;timestamp;pressure;altitude;pressure_sealevel;temperature;humidity
68179;BME280;54998;42.656;23.382;2022-09-09T00:02:21;95088.22;;;16.81;63.98
68179;BME280;54998;42.656;23.382;2022-09-09T00:07:54;95075.91;;;16.83;64.21
68179;BME280;54998;42.656;23.382;2022-09-09T00:10:28;95086.91;;;16.85;64.10
68179;BME280;54998;42.656;23.382;2022-09-09T00:13:46;95091.72;;;16.88;64.17
68179;BME280;54998;42.656;23.382;2022-09-09T00:18:24;95083.53;;;16.76;65.15
68179;BME280;54998;42.656;23.382;2022-09-09T00:23:45;95082.03;;;16.82;65.59
68179;BME280;54998;42.656;23.382;2022-09-09T00:32:14;95054.31;;;16.82;64.84
68179;BME280;54998;42.656;23.382;2022-09-09T00:34:57;95060.16;;;16.84;64.00
68179;BME280;54998;42.656;23.382;2022-09-09T00:37:26;95057.13;;;16.73;64.58
68179;BME280;54998;42.656;23.382;2022-09-09T00:39:54;95064.50;;;16.61;64.96
68179;BME280;54998;42.656;23.382;2022-09-09T00:42:41;95056.28;;;16.57;65.13
68179;BME280;54998;42.656;23.382;2022-09-09T00:45:37;95056.34;;;16.41;65.66
68179;BME280;54998;42.656;23.382;2022-09-09T00:48:11;95043.44;;;16.33;65.65
68179;BME280;54998;42.656;23.382;2022-09-09T00:56:06;95043.53;;;16.25;66.18
68179;BME280;54998;42.656;23.382;2022-09-09T00:58:34;95055.00;;;16.22;66.18
68179;BME280;54998;42.656;23.382;2022-09-09T01:01:06;95043.16;;;16.28;66.13
68179;BME280;54998;42.656;23.382;2022-09-09T01:03:36;95052.09;;;16.25;66.14
68179;BME280;54998;42.656;23.382;2022-09-09T01:06:31;95046.09;;;16.25;66.28
68179;BME280;54998;42.656;23.382;2022-09-09T01:17:12;95054.81;;;16.32;65.82
68179;BME280;54998;42.656;23.382;2022-09-09T01:20:05;95056.75;;;16.30;65.89
68179;BME280;54998;42.656;23.382;2022-09-09T01:26:15;95052.38;;;16.30;65.91
68179;BME280;54998;42.656;23.382;2022-09-09T01:28:44;95047.66;;;16.34;65.76
68179;BME280;54998;42.656;23.382;2022-09-09T01:31:15;95048.19;;;16.29;65.75
68179;BME280;54998;42.656;23.382;2022-09-09T01:33:42;95049.34;;;16.27;65.88
68179;BME280;54998;42.656;23.382;2022-09-09T01:38:36;95052.72;;;16.27;65.51
68179;BME280;54998;42.656;23.382;2022-09-09T01:41:02;95063.16;;;16.11;66.29
68179;BME280;54998;42.656;23.382;2022-09-09T01:43:28;95070.63;;;16.06;66.44
68179;BME280;54998;42.656;23.382;2022-09-09T01:45:56;95066.13;;;15.99;66.75
68179;BME280;54998;42.656;23.382;2022-09-09T01:48:24;95056.91;;;15.97;66.73
68179;BME280;54998;42.656;23.382;2022-09-09T01:50:51;95060.94;;;15.99;66.77
68179;BME280;54998;42.656;23.382;2022-09-09T01:53:18;95061.59;;;16.01;66.64
68179;BME280;54998;42.656;23.382;2022-09-09T01:58:42;95073.00;;;16.15;65.91
68179;BME280;54998;42.656;23.382;2022-09-09T02:01:52;95075.44;;;16.17;65.93
68179;BME280;54998;42.656;23.382;2022-09-09T02:07:08;95076.41;;;16.16;65.99
68179;BME280;54998;42.656;23.382;2022-09-09T02:09:40;95072.84;;;16.17;66.17
68179;BME280;54998;42.656;23.382;2022-09-09T02:12:12;95066.22;;;16.14;65.93
68179;BME280;54998;42.656;23.382;2022-09-09T02:14:42;95065.53;;;16.20;65.29
68179;BME280;54998;42.656;23.382;2022-09-09T02:17:14;95060.38;;;16.20;65.53
68179;BME280;54998;42.656;23.382;2022-09-09T02:19:46;95058.44;;;16.14;65.85
68179;BME280;54998;42.656;23.382;2022-09-09T02:22:17;95056.25;;;16.03;66.56
68179;BME280;54998;42.656;23.382;2022-09-09T02:24:44;95052.03;;;16.02;66.24
68179;BME280;54998;42.656;23.382;2022-09-09T02:27:12;95044.22;;;16.10;65.71
68179;BME280;54998;42.656;23.382;2022-09-09T02:29:41;95040.69;;;16.11;65.26
68179;BME280;54998;42.656;23.382;2022-09-09T02:32:10;95049.16;;;15.97;66.02
68179;BME280;54998;42.656;23.382;2022-09-09T02:34:42;95051.91;;;15.87;66.59
68179;BME280;54998;42.656;23.382;2022-09-09T02:37:10;95059.03;;;15.85;66.52
68179;BME280;54998;42.656;23.382;2022-09-09T02:39:37;95055.66;;;15.85;66.60
68179;BME280;54998;42.656;23.382;2022-09-09T02:42:04;95063.41;;;15.85;66.62
68179;BME280;54998;42.656;23.382;2022-09-09T02:44:30;95059.59;;;15.72;67.19
68179;BME280;54998;42.656;23.382;2022-09-09T02:47:03;95057.31;;;15.77;66.96
68179;BME280;54998;42.656;23.382;2022-09-09T02:52:50;95069.94;;;15.72;66.53
68179;BME280;54998;42.656;23.382;2022-09-09T02:55:47;95070.59;;;15.74;66.72
68179;BME280;54998;42.656;23.382;2022-09-09T02:58:16;95065.22;;;15.68;67.22
68179;BME280;54998;42.656;23.382;2022-09-09T03:00:44;95067.81;;;15.68;67.44
68179;BME280;54998;42.656;23.382;2022-09-09T03:03:10;95065.06;;;15.69;67.36
68179;BME280;54998;42.656;23.382;2022-09-09T03:05:36;95064.75;;;15.64;67.66
68179;BME280;54998;42.656;23.382;2022-09-09T03:08:03;95068.00;;;15.66;68.62
68179;BME280;54998;42.656;23.382;2022-09-09T03:10:29;95065.72;;;15.63;69.10
68179;BME280;54998;42.656;23.382;2022-09-09T03:12:54;95072.03;;;15.60;69.22
68179;BME280;54998;42.656;23.382;2022-09-09T03:15:20;95076.06;;;15.63;70.23
68179;BME280;54998;42.656;23.382;2022-09-09T03:17:46;95067.66;;;15.61;70.50
68179;BME280;54998;42.656;23.382;2022-09-09T03:20:12;95069.75;;;15.66;70.58
68179;BME280;54998;42.656;23.382;2022-09-09T03:22:37;95072.69;;;15.63;70.49
68179;BME280;54998;42.656;23.382;2022-09-09T03:25:03;95065.56;;;15.65;71.14
68179;BME280;54998;42.656;23.382;2022-09-09T03:27:29;95074.13;;;15.65;70.80
68179;BME280;54998;42.656;23.382;2022-09-09T03:29:55;95067.50;;;15.63;70.80
68179;BME280;54998;42.656;23.382;2022-09-09T03:32:21;95065.41;;;15.58;71.20
68179;BME280;54998;42.656;23.382;2022-09-09T03:34:48;95076.56;;;15.50;71.48
68179;BME280;54998;42.656;23.382;2022-09-09T03:37:15;95074.00;;;15.50;71.74
68179;BME280;54998;42.656;23.382;2022-09-09T03:39:42;95070.16;;;15.46;71.90
68179;BME280;54998;42.656;23.382;2022-09-09T03:42:08;95072.41;;;15.41;72.15
68179;BME280;54998;42.656;23.382;2022-09-09T03:44:33;95073.69;;;15.45;72.17
68179;BME280;54998;42.656;23.382;2022-09-09T03:46:59;95070.59;;;15.50;71.51
68179;BME280;54998;42.656;23.382;2022-09-09T03:49:26;95069.66;;;15.43;71.71
68179;BME280;54998;42.656;23.382;2022-09-09T03:51:56;95074.53;;;15.29;72.60
68179;BME280;54998;42.656;23.382;2022-09-09T03:54:24;95076.47;;;15.11;73.40
68179;BME280;54998;42.656;23.382;2022-09-09T03:56:50;95068.56;;;15.04;73.63
68179;BME280;54998;42.656;23.382;2022-09-09T03:59:15;95087.47;;;15.13;73.92
68179;BME280;54998;42.656;23.382;2022-09-09T04:01:41;95084.88;;;15.13;73.75
68179;BME280;54998;42.656;23.382;2022-09-09T04:04:06;95083.56;;;15.17;73.29
68179;BME280;54998;42.656;23.382;2022-09-09T04:06:33;95080.84;;;15.18;73.24
68179;BME280;54998;42.656;23.382;2022-09-09T04:08:58;95090.69;;;15.23;73.17
68179;BME280;54998;42.656;23.382;2022-09-09T04:11:23;95088.41;;;15.28;73.05
68179;BME280;54998;42.656;23.382;2022-09-09T04:13:49;95086.97;;;15.34;72.82
68179;BME280;54998;42.656;23.382;2022-09-09T04:16:15;95090.00;;;15.37;72.43
68179;BME280;54998;42.656;23.382;2022-09-09T04:18:41;95082.59;;;15.34;72.33
68179;BME280;54998;42.656;23.382;2022-09-09T04:21:08;95083.88;;;15.38;72.50
68179;BME280;54998;42.656;23.382;2022-09-09T04:23:35;95083.25;;;15.36;72.37
68179;BME280;54998;42.656;23.382;2022-09-09T04:26:01;95082.09;;;15.47;72.38
68179;BME280;54998;42.656;23.382;2022-09-09T04:28:30;95080.63;;;15.53;71.97
68179;BME280;54998;42.656;23.382;2022-09-09T04:30:56;95083.81;;;15.63;71.29
68179;BME280;54998;42.656;23.382;2022-09-09T04:33:24;95077.84;;;15.71;70.60
68179;BME280;54998;42.656;23.382;2022-09-09T04:35:53;95079.94;;;15.75;70.09
68179;BME280;54998;42.656;23.382;2022-09-09T04:38:20;95085.91;;;15.84;69.50
68179;BME280;54998;42.656;23.382;2022-09-09T04:40:48;95085.09;;;15.92;68.96
68179;BME280;54998;42.656;23.382;2022-09-09T04:43:14;95088.59;;;16.07;68.45
68179;BME280;54998;42.656;23.382;2022-09-09T04:45:40;95099.84;;;16.22;68.38
68179;BME280;54998;42.656;23.382;2022-09-09T04:48:06;95100.50;;;16.25;67.56
68179;BME280;54998;42.656;23.382;2022-09-09T04:50:32;95097.44;;;16.13;67.86
68179;BME280;54998;42.656;23.382;2022-09-09T04:53:00;95086.47;;;16.02;67.36
68179;BME280;54998;42.656;23.382;2022-09-09T04:55:26;95074.03;;;15.98;67.67
68179;BME280;54998;42.656;23.382;2022-09-09T04:57:52;95073.88;;;15.99;67.50
68179;BME280;54998;42.656;23.382;2022-09-09T05:00:17;95072.84;;;16.17;66.67
68179;BME280;54998;42.656;23.382;2022-09-09T05:02:44;95071.94;;;16.33;65.79
68179;BME280;54998;42.656;23.382;2022-09-09T05:05:09;95074.16;;;16.44;66.09
68179;BME280;54998;42.656;23.382;2022-09-09T05:07:36;95082.34;;;17.25;63.75
68179;BME280;54998;42.656;23.382;2022-09-09T05:10:02;95072.22;;;18.85;58.09
68179;BME280;54998;42.656;23.382;2022-09-09T05:12:29;95057.84;;;19.67;54.92
68179;BME280;54998;42.656;23.382;2022-09-09T05:14:54;95051.28;;;20.06;52.72
68179;BME280;54998;42.656;23.382;2022-09-09T05:17:20;95050.06;;;20.64;51.49
68179;BME280;54998;42.656;23.382;2022-09-09T05:19:46;95062.16;;;21.65;48.79
68179;BME280;54998;42.656;23.382;2022-09-09T05:22:11;95065.44;;;22.25;47.04
68179;BME280;54998;42.656;23.382;2022-09-09T05:24:39;95060.31;;;22.82;45.65
68179;BME280;54998;42.656;23.382;2022-09-09T05:27:05;95053.16;;;23.28;44.59
68179;BME280;54998;42.656;23.382;2022-09-09T05:29:31;95048.31;;;24.49;41.93
68179;BME280;54998;42.656;23.382;2022-09-09T05:31:59;95046.44;;;25.21;40.50
68179;BME280;54998;42.656;23.382;2022-09-09T05:34:24;95043.94;;;26.09;38.30
68179;BME280;54998;42.656;23.382;2022-09-09T05:36:50;95044.00;;;27.29;36.29
68179;BME280;54998;42.656;23.382;2022-09-09T05:39:17;95038.41;;;28.20;33.86
68179;BME280;54998;42.656;23.382;2022-09-09T05:41:42;95045.09;;;29.04;32.88
68179;BME280;54998;42.656;23.382;2022-09-09T05:44:08;95037.06;;;29.64;31.72
68179;BME280;54998;42.656;23.382;2022-09-09T05:46:33;95049.16;;;30.45;30.00
68179;BME280;54998;42.656;23.382;2022-09-09T05:48:58;95054.84;;;31.36;28.18
68179;BME280;54998;42.656;23.382;2022-09-09T05:51:26;95058.56;;;31.60;27.89
68179;BME280;54998;42.656;23.382;2022-09-09T05:53:53;95052.25;;;29.74;30.70
68179;BME280;54998;42.656;23.382;2022-09-09T05:56:25;95046.84;;;29.58;31.05
68179;BME280;54998;42.656;23.382;2022-09-09T05:58:51;95040.25;;;31.18;28.87
68179;BME280;54998;42.656;23.382;2022-09-09T06:01:31;95054.84;;;31.41;28.39
68179;BME280;54998;42.656;23.382;2022-09-09T06:03:56;95053.63;;;30.44;29.46
68179;BME280;54998;42.656;23.382;2022-09-09T06:06:22;95052.94;;;31.87;27.76
68179;BME280;54998;42.656;23.382;2022-09-09T06:08:53;95060.06;;;30.69;29.05
68179;BME280;54998;42.656;23.382;2022-09-09T06:11:20;95073.25;;;32.33;27.33
68179;BME280;54998;42.656;23.382;2022-09-09T06:13:47;95061.38;;;32.75;26.43
68179;BME280;54998;42.656;23.382;2022-09-09T06:16:18;95071.41;;;33.62;25.62
68179;BME280;54998;42.656;23.382;2022-09-09T06:18:44;95061.88;;;34.33;24.15
68179;BME280;54998;42.656;23.382;2022-09-09T06:21:17;95058.81;;;33.97;24.77
68179;BME280;54998;42.656;23.382;2022-09-09T06:23:43;95059.78;;;34.73;23.86
68179;BME280;54998;42.656;23.382;2022-09-09T06:28:35;95061.75;;;35.71;22.50
68179;BME280;54998;42.656;23.382;2022-09-09T06:31:03;95064.25;;;36.37;21.87
68179;BME280;54998;42.656;23.382;2022-09-09T06:33:35;95064.81;;;35.32;22.31
68179;BME280;54998;42.656;23.382;2022-09-09T06:36:01;95060.66;;;34.88;23.25
68179;BME280;54998;42.656;23.382;2022-09-09T06:38:27;95061.94;;;35.09;23.83
68179;BME280;54998;42.656;23.382;2022-09-09T06:40:57;95052.78;;;36.09;22.12
68179;BME280;54998;42.656;23.382;2022-09-09T06:43:27;95056.00;;;35.64;22.38
68179;BME280;54998;42.656;23.382;2022-09-09T06:46:13;95055.38;;;35.02;22.62
68179;BME280;54998;42.656;23.382;2022-09-09T06:48:39;95048.16;;;35.02;22.81
68179;BME280;54998;42.656;23.382;2022-09-09T06:51:19;95048.09;;;35.07;22.28
68179;BME280;54998;42.656;23.382;2022-09-09T06:53:47;95057.91;;;34.31;23.65
68179;BME280;54998;42.656;23.382;2022-09-09T06:56:35;95060.38;;;34.70;22.61
68179;BME280;54998;42.656;23.382;2022-09-09T06:59:03;95063.03;;;35.74;21.99
68179;BME280;54998;42.656;23.382;2022-09-09T07:01:31;95067.22;;;36.08;21.76
68179;BME280;54998;42.656;23.382;2022-09-09T07:03:58;95065.25;;;36.41;21.54
68179;BME280;54998;42.656;23.382;2022-09-09T07:06:35;95070.19;;;36.48;20.90
68179;BME280;54998;42.656;23.382;2022-09-09T07:09:06;95067.56;;;35.27;21.94
68179;BME280;54998;42.656;23.382;2022-09-09T07:11:38;95075.84;;;33.38;24.75
68179;BME280;54998;42.656;23.382;2022-09-09T07:14:04;95075.25;;;31.66;27.12
68179;BME280;54998;42.656;23.382;2022-09-09T07:16:29;95061.34;;;32.20;26.25
68179;BME280;54998;42.656;23.382;2022-09-09T07:18:56;95057.94;;;30.81;27.85
68179;BME280;54998;42.656;23.382;2022-09-09T07:21:24;95067.59;;;31.49;26.58
68179;BME280;54998;42.656;23.382;2022-09-09T07:23:51;95062.97;;;33.15;25.36
68179;BME280;54998;42.656;23.382;2022-09-09T07:26:19;95053.81;;;34.82;23.10
68179;BME280;54998;42.656;23.382;2022-09-09T07:28:45;95057.94;;;35.58;21.54
68179;BME280;54998;42.656;23.382;2022-09-09T07:33:42;95050.91;;;36.37;19.98
68179;BME280;54998;42.656;23.382;2022-09-09T07:36:13;95044.00;;;36.22;20.48
68179;BME280;54998;42.656;23.382;2022-09-09T07:38:47;95053.97;;;35.75;21.27
68179;BME280;54998;42.656;23.382;2022-09-09T07:41:20;95040.56;;;34.33;22.12
68179;BME280;54998;42.656;23.382;2022-09-09T07:43:47;95055.41;;;35.34;20.71
68179;BME280;54998;42.656;23.382;2022-09-09T07:46:14;95052.72;;;34.64;21.60
68179;BME280;54998;42.656;23.382;2022-09-09T07:48:44;95065.47;;;34.86;21.37
68179;BME280;54998;42.656;23.382;2022-09-09T07:51:13;95063.97;;;36.66;20.00
68179;BME280;54998;42.656;23.382;2022-09-09T07:53:42;95065.06;;;36.24;19.66
68179;BME280;54998;42.656;23.382;2022-09-09T07:56:11;95058.47;;;35.28;21.17
68179;BME280;54998;42.656;23.382;2022-09-09T07:58:38;95064.38;;;35.25;20.88
68179;BME280;54998;42.656;23.382;2022-09-09T08:01:13;95056.06;;;36.61;19.68
68179;BME280;54998;42.656;23.382;2022-09-09T08:03:39;95049.19;;;37.50;19.08
68179;BME280;54998;42.656;23.382;2022-09-09T08:06:07;95042.81;;;37.37;18.73
68179;BME280;54998;42.656;23.382;2022-09-09T08:08:34;95045.88;;;34.95;21.40
68179;BME280;54998;42.656;23.382;2022-09-09T08:11:08;95055.13;;;34.41;22.31
68179;BME280;54998;42.656;23.382;2022-09-09T08:13:38;95055.19;;;32.35;24.70
68179;BME280;54998;42.656;23.382;2022-09-09T08:16:06;95051.03;;;33.13;24.12
68179;BME280;54998;42.656;23.382;2022-09-09T08:18:33;95054.19;;;32.16;25.39
68179;BME280;54998;42.656;23.382;2022-09-09T08:21:05;95049.75;;;33.40;24.26
68179;BME280;54998;42.656;23.382;2022-09-09T08:23:31;95049.72;;;34.27;23.16
68179;BME280;54998;42.656;23.382;2022-09-09T08:26:03;95046.22;;;35.27;21.51
68179;BME280;54998;42.656;23.382;2022-09-09T08:28:29;95045.13;;;33.50;23.83
68179;BME280;54998;42.656;23.382;2022-09-09T08:30:56;95042.25;;;33.76;23.79
68179;BME280;54998;42.656;23.382;2022-09-09T08:33:21;95037.78;;;33.95;23.93
68179;BME280;54998;42.656;23.382;2022-09-09T08:35:50;95047.00;;;33.21;24.41
68179;BME280;54998;42.656;23.382;2022-09-09T08:38:16;95045.75;;;33.03;25.00
68179;BME280;54998;42.656;23.382;2022-09-09T08:40:46;95049.78;;;31.75;26.65
68179;BME280;54998;42.656;23.382;2022-09-09T08:43:15;95035.22;;;31.31;27.22
68179;BME280;54998;42.656;23.382;2022-09-09T08:46:07;95041.25;;;30.70;27.72
68179;BME280;54998;42.656;23.382;2022-09-09T08:51:34;95041.53;;;30.79;27.38
68179;BME280;54998;42.656;23.382;2022-09-09T08:53:59;95033.00;;;30.52;27.78
68179;BME280;54998;42.656;23.382;2022-09-09T08:56:27;95034.06;;;30.56;28.03
68179;BME280;54998;42.656;23.382;2022-09-09T08:58:56;95032.78;;;29.95;28.51
68179;BME280;54998;42.656;23.382;2022-09-09T09:02:37;95031.78;;;30.12;28.71
68179;BME280;54998;42.656;23.382;2022-09-09T09:04:45;95029.41;;;31.45;27.62
68179;BME280;54998;42.656;23.382;2022-09-09T09:12:59;95027.16;;;32.68;25.85
68179;BME280;54998;42.656;23.382;2022-09-09T09:15:31;95033.47;;;32.18;26.01
68179;BME280;54998;42.656;23.382;2022-09-09T09:18:02;95017.97;;;33.83;24.67
68179;BME280;54998;42.656;23.382;2022-09-09T09:23:15;95013.91;;;37.79;20.09
68179;BME280;54998;42.656;23.382;2022-09-09T09:25:44;95019.66;;;35.82;21.53
68179;BME280;54998;42.656;23.382;2022-09-09T09:28:17;95014.44;;;34.54;23.15
68179;BME280;54998;42.656;23.382;2022-09-09T09:35:55;95027.91;;;32.19;26.07
68179;BME280;54998;42.656;23.382;2022-09-09T09:38:23;95032.19;;;32.10;26.44
68179;BME280;54998;42.656;23.382;2022-09-09T09:40:54;95024.63;;;31.52;26.97
68179;BME280;54998;42.656;23.382;2022-09-09T09:43:36;95027.50;;;31.66;27.59
68179;BME280;54998;42.656;23.382;2022-09-09T09:46:16;95018.19;;;31.79;26.78
68179;BME280;54998;42.656;23.382;2022-09-09T09:48:43;95011.63;;;33.79;24.57
68179;BME280;54998;42.656;23.382;2022-09-09T09:51:10;95001.19;;;33.58;24.32
68179;BME280;54998;42.656;23.382;2022-09-09T09:53:39;95002.84;;;32.85;24.76
68179;BME280;54998;42.656;23.382;2022-09-09T09:56:07;94989.88;;;31.23;27.12
68179;BME280;54998;42.656;23.382;2022-09-09T10:01:30;94996.72;;;29.84;29.51
68179;BME280;54998;42.656;23.382;2022-09-09T10:04:23;94990.28;;;30.17;30.30
68179;BME280;54998;42.656;23.382;2022-09-09T10:06:51;94996.00;;;31.18;28.45
68179;BME280;54998;42.656;23.382;2022-09-09T10:09:27;94997.84;;;31.07;28.21
68179;BME280;54998;42.656;23.382;2022-09-09T10:12:19;94999.16;;;31.20;27.83
68179;BME280;54998;42.656;23.382;2022-09-09T10:23:00;95009.19;;;30.62;28.85
68179;BME280;54998;42.656;23.382;2022-09-09T10:31:27;95000.97;;;29.42;31.63
68179;BME280;54998;42.656;23.382;2022-09-09T10:36:56;95009.38;;;29.34;31.20
68179;BME280;54998;42.656;23.382;2022-09-09T10:39:38;95015.06;;;29.16;32.97
68179;BME280;54998;42.656;23.382;2022-09-09T10:42:14;95011.88;;;29.51;31.93
68179;BME280;54998;42.656;23.382;2022-09-09T10:49:57;95016.50;;;28.47;33.72
68179;BME280;54998;42.656;23.382;2022-09-09T10:52:32;95014.03;;;28.35;33.86
68179;BME280;54998;42.656;23.382;2022-09-09T10:55:18;95011.81;;;28.27;33.67
68179;BME280;54998;42.656;23.382;2022-09-09T10:57:46;95013.84;;;28.20;33.78
68179;BME280;54998;42.656;23.382;2022-09-09T11:02:41;95014.13;;;28.45;33.82
68179;BME280;54998;42.656;23.382;2022-09-09T11:05:20;95009.78;;;28.34;33.74
68179;BME280;54998;42.656;23.382;2022-09-09T11:13:11;95012.75;;;28.16;34.22
68179;BME280;54998;42.656;23.382;2022-09-09T11:15:50;95016.31;;;28.04;34.56
68179;BME280;54998;42.656;23.382;2022-09-09T11:18:21;95019.59;;;28.17;34.80
68179;BME280;54998;42.656;23.382;2022-09-09T11:20:56;95013.75;;;27.88;35.00
68179;BME280;54998;42.656;23.382;2022-09-09T11:23:39;95006.72;;;27.76;35.26
68179;BME280;54998;42.656;23.382;2022-09-09T11:26:07;95000.94;;;26.44;37.95
68179;BME280;54998;42.656;23.382;2022-09-09T11:28:53;95001.81;;;26.95;37.18
68179;BME280;54998;42.656;23.382;2022-09-09T11:44:38;94969.34;;;26.15;38.22
68179;BME280;54998;42.656;23.382;2022-09-09T11:47:17;94970.97;;;25.40;40.78
68179;BME280;54998;42.656;23.382;2022-09-09T11:49:44;94955.22;;;26.05;39.90
68179;BME280;54998;42.656;23.382;2022-09-09T11:55:10;94919.50;;;27.39;37.14
68179;BME280;54998;42.656;23.382;2022-09-09T11:57:37;94917.63;;;27.78;36.17
68179;BME280;54998;42.656;23.382;2022-09-09T12:00:04;94923.56;;;27.91;36.23
68179;BME280;54998;42.656;23.382;2022-09-09T12:02:30;94926.69;;;28.10;36.81
68179;BME280;54998;42.656;23.382;2022-09-09T12:05:11;94932.81;;;28.42;35.58
68179;BME280;54998;42.656;23.382;2022-09-09T12:07:41;94937.28;;;28.69;34.39
68179;BME280;54998;42.656;23.382;2022-09-09T12:10:29;94947.81;;;29.34;34.16
68179;BME280;54998;42.656;23.382;2022-09-09T12:12:55;94931.69;;;29.35;33.31
68179;BME280;54998;42.656;23.382;2022-09-09T12:15:32;94929.53;;;28.90;33.85
68179;BME280;54998;42.656;23.382;2022-09-09T12:17:58;94926.66;;;28.96;34.43
68179;BME280;54998;42.656;23.382;2022-09-09T12:20:35;94916.66;;;29.41;34.02
68179;BME280;54998;42.656;23.382;2022-09-09T12:23:13;94906.13;;;28.71;34.63
68179;BME280;54998;42.656;23.382;2022-09-09T12:28:47;94920.47;;;29.65;33.04
68179;BME280;54998;42.656;23.382;2022-09-09T12:31:36;94909.97;;;29.86;32.52
68179;BME280;54998;42.656;23.382;2022-09-09T12:34:29;94911.63;;;30.07;32.26
68179;BME280;54998;42.656;23.382;2022-09-09T12:37:06;94903.78;;;30.84;31.52
68179;BME280;54998;42.656;23.382;2022-09-09T12:39:43;94892.69;;;30.52;31.16
68179;BME280;54998;42.656;23.382;2022-09-09T12:42:18;94897.44;;;30.70;30.80
68179;BME280;54998;42.656;23.382;2022-09-09T12:44:56;94886.56;;;30.46;31.09
68179;BME280;54998;42.656;23.382;2022-09-09T12:47:48;94889.47;;;30.29;32.13
68179;BME280;54998;42.656;23.382;2022-09-09T12:50:18;94890.53;;;30.28;32.62
68179;BME280;54998;42.656;23.382;2022-09-09T12:52:44;94887.81;;;30.07;32.63
68179;BME280;54998;42.656;23.382;2022-09-09T12:55:17;94890.72;;;29.96;32.81
68179;BME280;54998;42.656;23.382;2022-09-09T12:57:43;94882.78;;;29.33;33.49
68179;BME280;54998;42.656;23.382;2022-09-09T13:00:14;94878.28;;;28.91;34.50
68179;BME280;54998;42.656;23.382;2022-09-09T13:02:52;94870.09;;;28.87;35.00
68179;BME280;54998;42.656;23.382;2022-09-09T13:05:20;94873.16;;;29.11;34.84
68179;BME280;54998;42.656;23.382;2022-09-09T13:07:46;94870.69;;;29.47;34.43
68179;BME280;54998;42.656;23.382;2022-09-09T13:10:13;94866.66;;;30.07;33.31
68179;BME280;54998;42.656;23.382;2022-09-09T13:12:39;94869.34;;;30.38;33.05
68179;BME280;54998;42.656;23.382;2022-09-09T13:15:14;94862.44;;;30.17;31.79
68179;BME280;54998;42.656;23.382;2022-09-09T13:17:50;94864.94;;;29.65;32.89
68179;BME280;54998;42.656;23.382;2022-09-09T13:20:17;94866.16;;;29.32;33.60
68179;BME280;54998;42.656;23.382;2022-09-09T13:22:43;94865.03;;;29.91;33.21
68179;BME280;54998;42.656;23.382;2022-09-09T13:27:40;94864.06;;;29.44;33.65
68179;BME280;54998;42.656;23.382;2022-09-09T13:30:35;94848.38;;;30.01;33.29
68179;BME280;54998;42.656;23.382;2022-09-09T13:35:35;94843.09;;;29.22;34.46
68179;BME280;54998;42.656;23.382;2022-09-09T13:38:14;94839.66;;;28.79;34.91
68179;BME280;54998;42.656;23.382;2022-09-09T13:40:39;94834.56;;;28.35;36.04
68179;BME280;54998;42.656;23.382;2022-09-09T13:43:10;94845.66;;;28.05;37.10
68179;BME280;54998;42.656;23.382;2022-09-09T13:45:40;94840.88;;;27.53;37.79
68179;BME280;54998;42.656;23.382;2022-09-09T13:48:10;94844.69;;;27.40;38.32
68179;BME280;54998;42.656;23.382;2022-09-09T13:50:35;94836.22;;;27.60;37.76
68179;BME280;54998;42.656;23.382;2022-09-09T13:53:01;94823.91;;;27.43;38.10
68179;BME280;54998;42.656;23.382;2022-09-09T13:55:27;94821.59;;;27.25;38.95
68179;BME280;54998;42.656;23.382;2022-09-09T13:57:55;94816.19;;;27.37;38.39
68179;BME280;54998;42.656;23.382;2022-09-09T14:00:22;94820.59;;;27.53;38.54
68179;BME280;54998;42.656;23.382;2022-09-09T14:02:49;94830.16;;;27.37;38.72
68179;BME280;54998;42.656;23.382;2022-09-09T14:05:15;94826.59;;;27.76;38.36
68179;BME280;54998;42.656;23.382;2022-09-09T14:07:42;94819.78;;;28.02;36.92
68179;BME280;54998;42.656;23.382;2022-09-09T14:10:09;94834.25;;;27.72;37.95
68179;BME280;54998;42.656;23.382;2022-09-09T14:12:34;94828.91;;;27.45;37.57
68179;BME280;54998;42.656;23.382;2022-09-09T14:15:02;94828.22;;;27.11;38.54
68179;BME280;54998;42.656;23.382;2022-09-09T14:17:28;94823.88;;;27.65;37.48
68179;BME280;54998;42.656;23.382;2022-09-09T14:19:56;94815.06;;;27.55;38.18
68179;BME280;54998;42.656;23.382;2022-09-09T14:22:22;94815.94;;;27.38;38.90
68179;BME280;54998;42.656;23.382;2022-09-09T14:24:48;94820.78;;;27.47;38.61
68179;BME280;54998;42.656;23.382;2022-09-09T14:27:14;94809.53;;;27.56;38.61
68179;BME280;54998;42.656;23.382;2022-09-09T14:29:40;94816.72;;;27.61;37.50
68179;BME280;54998;42.656;23.382;2022-09-09T14:32:05;94802.66;;;27.50;37.60
68179;BME280;54998;42.656;23.382;2022-09-09T14:34:31;94808.78;;;27.34;38.14
68179;BME280;54998;42.656;23.382;2022-09-09T14:37:00;94810.59;;;27.11;39.11
68179;BME280;54998;42.656;23.382;2022-09-09T14:39:25;94811.81;;;26.64;41.02
68179;BME280;54998;42.656;23.382;2022-09-09T14:41:51;94810.94;;;26.59;40.85
68179;BME280;54998;42.656;23.382;2022-09-09T14:44:16;94807.09;;;26.50;40.41
68179;BME280;54998;42.656;23.382;2022-09-09T14:46:42;94807.97;;;26.55;40.07
68179;BME280;54998;42.656;23.382;2022-09-09T14:49:08;94810.84;;;26.37;40.22
68179;BME280;54998;42.656;23.382;2022-09-09T14:51:35;94803.03;;;26.25;40.87
68179;BME280;54998;42.656;23.382;2022-09-09T14:54:02;94797.59;;;26.15;40.95
68179;BME280;54998;42.656;23.382;2022-09-09T14:56:29;94806.78;;;26.12;40.84
68179;BME280;54998;42.656;23.382;2022-09-09T14:58:56;94801.81;;;25.99;41.34
68179;BME280;54998;42.656;23.382;2022-09-09T15:01:23;94803.19;;;26.01;41.33
68179;BME280;54998;42.656;23.382;2022-09-09T15:03:52;94810.19;;;25.96;41.54
68179;BME280;54998;42.656;23.382;2022-09-09T15:06:18;94803.50;;;26.05;41.39
68179;BME280;54998;42.656;23.382;2022-09-09T15:08:45;94807.25;;;26.09;41.54